.
WxDataArchive / Data Records for 2006-02-04
2006-02-03 February 2006 2006-02-05

Data Records for Saturday, 04 February 2006

Time	Temp	Chill	HIndex	Humid	Dewpt	 Wind 	HiWind	WindDir	Rain 	Barom 
-----	----	-----	------	-----	-----	------	------	-------	-----	----- 
00:00	38.9	38.9	38.9	91	36.5	0	0	---	0.00	29.726 
00:05	38.8	38.8	38.8	92	36.7	0	0	---	0.00	29.726 
00:10	38.8	38.8	38.8	92	36.7	0	0	---	0.00	29.726 
00:15	38.8	38.8	38.8	92	36.7	0	0	---	0.00	29.725 
00:20	38.8	38.8	38.8	92	36.7	0	0	---	0.00	29.725 
00:25	38.8	38.8	38.8	92	36.7	0	0	---	0.00	29.725 
00:30	38.6	38.6	38.6	92	36.5	0	0	---	0.00	29.727 
00:35	38.6	38.6	38.6	92	36.5	0	0	---	0.00	29.727 
00:40	38.6	38.6	38.6	92	36.5	0	0	---	0.00	29.727 
00:45	38.6	38.6	38.6	92	36.5	0	0	---	0.00	29.729 
00:50	38.5	38.5	38.5	93	36.7	0	0	---	0.00	29.729 
00:55	38.5	38.5	38.5	93	36.7	0	0	---	0.00	29.729 
01:00	38.3	38.3	38.3	93	36.5	0	0	---	0.00	29.728 
01:05	38.2	38.2	38.2	93	36.4	0	0	---	0.00	29.728 
01:10	38.0	38.0	38.0	93	36.2	0	0	---	0.00	29.728 
01:15	38.0	38.0	38.0	93	36.2	0	0	---	0.00	29.724 
01:20	37.9	37.9	37.9	93	36.1	0	0	---	0.00	29.724 
01:25	37.8	37.8	37.8	93	36.0	0	0	---	0.00	29.724 
01:30	37.8	37.8	37.8	93	36.0	0	0	---	0.00	29.722 
01:35	37.6	37.6	37.6	93	35.8	0	0	---	0.00	29.722 
01:40	37.6	37.6	37.6	93	35.8	0	0	---	0.00	29.722 
01:45	37.5	37.5	37.5	93	35.7	0	0	---	0.00	29.717 
01:50	37.5	37.5	37.5	93	35.7	0	0	---	0.00	29.717 
01:55	37.5	37.5	37.5	93	35.7	0	0	---	0.00	29.717 
02:00	37.5	37.5	37.5	93	35.7	0	0	---	0.00	29.718 
02:05	37.3	37.3	37.3	93	35.5	0	0	---	0.00	29.718 
02:10	37.3	37.3	37.3	93	35.5	0	0	---	0.00	29.718 
02:15	37.3	37.3	37.3	94	35.7	0	0	---	0.00	29.714 
02:20	37.3	37.3	37.3	94	35.7	0	0	---	0.00	29.714 
02:25	37.3	37.3	37.3	94	35.7	0	0	---	0.00	29.714 
02:30	37.5	37.5	37.5	94	35.9	0	0	---	0.00	29.709 
02:35	37.5	37.5	37.5	94	35.9	0	0	---	0.00	29.709 
02:40	37.5	37.5	37.5	94	35.9	0	0	---	0.00	29.709 
02:45	37.5	37.5	37.5	94	35.9	0	0	---	0.00	29.710 
02:50	37.3	37.3	37.3	94	35.7	0	0	---	0.00	29.710 
02:55	37.3	37.3	37.3	94	35.7	0	0	---	0.00	29.710 
03:00	37.3	37.3	37.3	94	35.7	0	0	---	0.00	29.706 
03:05	37.3	37.3	37.3	94	35.7	0	0	---	0.00	29.706 
03:10	37.3	37.3	37.3	94	35.7	0	0	---	0.00	29.706 
03:15	37.5	37.5	37.5	94	35.9	0	0	---	0.00	29.698 
03:20	37.5	37.5	37.5	94	35.9	0	0	---	0.00	29.698 
03:25	37.5	37.5	37.5	94	35.9	0	0	---	0.00	29.698 
03:30	37.6	37.6	37.6	94	36.0	0	0	---	0.00	29.698 
03:35	37.6	37.6	37.6	94	36.0	0	0	---	0.00	29.698 
03:40	37.6	37.6	37.6	94	36.0	0	0	---	0.00	29.698 
03:45	37.8	37.8	37.8	95	36.5	0	0	---	0.00	29.696 
03:50	37.9	37.9	37.9	95	36.6	0	0	---	0.00	29.696 
03:55	38.0	38.0	38.0	95	36.7	0	1	248	0.00	29.696 
04:00	38.2	38.2	38.2	95	36.9	0	2	315	0.00	29.700 
04:05	38.2	38.2	38.2	95	36.9	0	2	315	0.00	29.700 
04:10	38.0	38.0	38.0	95	36.7	1	2	270	0.00	29.700 
04:15	37.9	37.9	37.9	94	36.3	0	2	292	0.00	29.698 
04:20	37.6	37.6	37.6	94	36.0	1	2	292	0.00	29.698 
04:25	37.5	37.5	37.5	94	35.9	1	3	270	0.00	29.698 
04:30	37.5	37.5	37.5	94	35.9	1	3	292	0.00	29.697 
04:35	37.3	37.3	37.3	93	35.5	1	3	338	0.00	29.697 
04:40	37.2	37.2	37.2	93	35.4	1	2	292	0.00	29.697 
04:45	37.2	37.2	37.2	92	35.1	1	3	270	0.00	29.691 
04:50	37.2	37.2	37.2	92	35.1	0	2	315	0.00	29.691 
04:55	37.0	37.0	37.0	92	34.9	1	3	270	0.00	29.691 
05:00	37.0	37.0	37.0	91	34.6	0	3	270	0.00	29.688 
05:05	36.9	36.9	36.9	90	34.2	1	4	292	0.00	29.688 
05:10	36.8	36.8	36.8	89	33.9	1	3	292	0.00	29.688 
05:15	36.6	36.6	36.6	89	33.7	0	2	270	0.00	29.683 
05:20	36.6	36.6	36.6	89	33.7	1	3	338	0.00	29.683 
05:25	36.5	36.5	36.5	89	33.6	0	1	315	0.00	29.683 
05:30	36.5	36.5	36.5	89	33.6	1	3	292	0.00	29.675 
05:35	36.5	36.5	36.5	90	33.9	0	2	292	0.00	29.675 
05:40	36.3	36.3	36.3	90	33.7	0	1	292	0.00	29.675 
05:45	36.3	36.3	36.3	90	33.7	0	2	292	0.00	29.668 
05:50	36.3	36.3	36.3	90	33.7	0	2	315	0.00	29.668 
05:55	36.3	36.3	36.3	90	33.7	0	1	315	0.00	29.668 
06:00	36.3	36.3	36.3	90	33.7	0	2	338	0.00	29.667 
06:05	36.3	36.3	36.3	90	33.7	0	2	22	0.00	29.667 
06:10	36.3	36.3	36.3	91	33.9	0	2	270	0.01	29.667 
06:15	36.3	36.3	36.3	91	33.9	1	3	338	0.00	29.668 
06:20	36.2	36.2	36.2	91	33.8	0	2	315	0.00	29.668 
06:25	36.2	36.2	36.2	91	33.8	0	2	338	0.00	29.668 
06:30	36.2	36.2	36.2	91	33.8	0	3	270	0.00	29.661 
06:35	36.2	36.2	36.2	92	34.1	0	1	0	0.00	29.661 
06:40	36.2	36.2	36.2	92	34.1	0	3	338	0.01	29.661 
06:45	36.2	36.2	36.2	92	34.1	0	2	338	0.00	29.667 
06:50	36.0	36.0	36.0	92	33.9	1	3	292	0.00	29.667 
06:55	36.0	36.0	36.0	92	33.9	1	3	270	0.01	29.667 
07:00	35.9	35.9	35.9	92	33.8	1	2	338	0.00	29.659 
07:05	35.9	35.9	35.9	92	33.8	1	3	338	0.01	29.659 
07:10	35.9	35.9	35.9	92	33.8	1	2	315	0.00	29.659 
07:15	35.8	35.8	35.8	92	33.7	1	3	315	0.00	29.662 
07:20	35.6	35.6	35.6	92	33.5	1	3	338	0.01	29.662 
07:25	35.6	35.6	35.6	92	33.5	1	3	248	0.00	29.662 
07:30	35.5	35.5	35.5	92	33.4	1	7	292	0.00	29.665 
07:35	35.3	35.3	35.3	92	33.2	1	3	0	0.00	29.665 
07:40	35.2	35.2	35.2	92	33.1	0	2	0	0.00	29.665 
07:45	35.0	35.0	35.0	92	32.9	1	2	292	0.01	29.669 
07:50	34.7	34.7	34.7	92	32.6	1	3	292	0.00	29.669 
07:55	34.6	34.6	34.6	92	32.5	1	3	292	0.00	29.669 
08:00	34.3	34.3	34.3	92	32.2	1	3	338	0.00	29.663 
08:05	34.1	34.1	34.1	92	32.0	1	3	315	0.00	29.663 
08:10	33.8	33.8	33.8	92	31.7	1	3	315	0.01	29.663 
08:15	33.7	33.7	33.7	92	31.6	1	3	0	0.00	29.662 
08:20	33.5	33.5	33.5	92	31.4	1	4	0	0.00	29.662 
08:25	33.4	33.4	33.4	92	31.3	1	3	338	0.00	29.662 
08:30	33.2	33.2	33.2	92	31.1	1	3	315	0.00	29.663 
08:35	33.1	33.1	33.1	93	31.3	1	3	315	0.00	29.663 
08:40	33.1	33.1	33.1	93	31.3	1	3	22	0.00	29.663 
08:45	33.1	33.1	33.1	93	31.3	0	2	338	0.00	29.660 
08:50	32.9	32.9	32.9	93	31.1	0	2	338	0.00	29.660 
08:55	32.9	32.9	32.9	93	31.1	1	2	338	0.00	29.660 
09:00	32.9	32.9	32.9	93	31.1	1	4	0	0.00	29.662 
09:05	32.9	32.9	32.9	93	31.1	1	2	0	0.00	29.662 
09:10	32.9	32.9	32.9	93	31.1	1	3	315	0.00	29.662 
09:15	32.9	32.9	32.9	93	31.1	1	3	0	0.00	29.658 
09:20	32.8	32.8	32.8	93	31.0	1	2	338	0.00	29.658 
09:25	32.8	32.8	32.8	93	31.0	1	2	45	0.00	29.658 
09:30	32.8	32.8	32.8	93	31.0	1	3	338	0.00	29.657 
09:35	32.8	32.8	32.8	93	31.0	1	3	0	0.00	29.657 
09:40	32.8	32.8	32.8	93	31.0	1	2	0	0.00	29.657 
09:45	32.8	32.8	32.8	93	31.0	1	3	338	0.00	29.636 
09:50	32.8	32.8	32.8	94	31.3	1	3	0	0.00	29.636 
09:55	32.8	32.8	32.8	94	31.3	1	2	338	0.00	29.636 
10:00	32.8	32.8	32.8	94	31.3	1	3	0	0.00	29.625 
10:05	32.8	32.8	32.8	94	31.3	1	3	0	0.00	29.625 
10:10	32.8	32.8	32.8	94	31.3	1	3	338	0.00	29.625 
10:15	32.8	32.8	32.8	94	31.3	1	2	338	0.00	29.613 
10:20	32.8	32.8	32.8	94	31.3	1	3	315	0.00	29.613 
10:25	32.8	32.8	32.8	94	31.3	1	5	0	0.00	29.613 
10:30	32.8	32.8	32.8	94	31.3	1	4	0	0.01	29.604 
10:35	32.8	32.8	32.8	94	31.3	1	2	338	0.00	29.604 
10:40	32.8	32.8	32.8	94	31.3	1	3	338	0.00	29.604 
10:45	32.9	32.9	32.9	93	31.1	1	2	292	0.00	29.600 
10:50	32.9	32.9	32.9	93	31.1	1	3	338	0.01	29.600 
10:55	32.9	32.9	32.9	93	31.1	1	3	338	0.00	29.600 
11:00	32.9	32.9	32.9	93	31.1	2	5	338	0.00	29.589 
11:05	33.1	33.1	33.1	93	31.3	2	5	338	0.01	29.589 
11:10	33.1	33.1	33.1	93	31.3	2	6	315	0.00	29.589 
11:15	33.1	33.1	33.1	93	31.3	1	3	315	0.00	29.592 
11:20	33.1	33.1	33.1	93	31.3	1	4	315	0.00	29.592 
11:25	33.1	33.1	33.1	93	31.3	2	7	315	0.01	29.592 
11:30	33.1	33.1	33.1	93	31.3	1	4	315	0.00	29.583 
11:35	33.1	33.1	33.1	93	31.3	1	3	0	0.00	29.583 
11:40	33.1	33.1	33.1	93	31.3	2	4	338	0.00	29.583 
11:45	33.1	33.1	33.1	93	31.3	1	4	338	0.01	29.584 
11:50	32.9	32.9	32.9	93	31.1	2	6	338	0.00	29.584 
11:55	32.9	32.9	32.9	93	31.1	2	5	270	0.00	29.584 
12:00	32.9	32.9	32.9	93	31.1	2	7	270	0.00	29.571 
12:05	32.9	32.9	32.9	93	31.1	2	5	338	0.00	29.571 
12:10	32.8	32.8	32.8	92	30.7	2	5	338	0.01	29.571 
12:15	32.8	32.8	32.8	93	31.0	1	5	0	0.00	29.551 
12:20	32.8	32.8	32.8	93	31.0	2	4	0	0.00	29.551 
12:25	32.8	32.8	32.8	93	31.0	1	4	292	0.00	29.551 
12:30	32.7	32.7	32.7	93	30.9	2	6	315	0.00	29.548 
12:35	32.7	32.7	32.7	92	30.6	2	5	0	0.01	29.548 
12:40	32.7	32.7	32.7	93	30.9	1	4	292	0.00	29.548 
12:45	32.7	32.7	32.7	93	30.9	2	4	315	0.00	29.549 
12:50	32.7	32.7	32.7	93	30.9	1	3	338	0.00	29.549 
12:55	32.5	32.5	32.5	92	30.4	2	6	270	0.00	29.549 
13:00	32.5	32.5	32.5	92	30.4	2	5	292	0.00	29.545 
13:05	32.5	32.5	32.5	92	30.4	2	6	315	0.00	29.545 
13:10	32.5	32.5	32.5	92	30.4	2	5	315	0.01	29.545 
13:15	32.7	32.7	32.7	92	30.6	2	5	292	0.00	29.542 
13:20	32.7	32.7	32.7	92	30.6	2	6	315	0.00	29.542 
13:25	32.7	32.7	32.7	92	30.6	2	5	292	0.00	29.542 
13:30	32.7	32.7	32.7	92	30.6	2	4	315	0.00	29.534 
13:35	32.7	32.7	32.7	92	30.6	2	6	292	0.00	29.534 
13:40	32.7	32.7	32.7	92	30.6	2	4	315	0.00	29.534 
13:45	32.5	32.5	32.5	92	30.4	2	5	292	0.00	29.529 
13:50	32.5	32.5	32.5	92	30.4	2	4	315	0.00	29.529 
13:55	32.5	32.5	32.5	93	30.7	2	5	315	0.01	29.529 
14:00	32.5	32.5	32.5	93	30.7	2	5	315	0.00	29.521 
14:05	32.5	32.5	32.5	93	30.7	2	5	315	0.00	29.521 
14:10	32.5	32.5	32.5	93	30.7	2	6	292	0.00	29.521 
14:15	32.5	32.5	32.5	93	30.7	2	6	270	0.00	29.518 
14:20	32.5	32.5	32.5	93	30.7	2	5	270	0.00	29.518 
14:25	32.5	32.5	32.5	93	30.7	2	6	315	0.00	29.518 
14:30	32.4	32.4	32.4	93	30.6	2	5	292	0.00	29.509 
14:35	32.4	32.4	32.4	93	30.6	2	5	292	0.00	29.509 
14:40	32.4	32.4	32.4	93	30.6	2	5	292	0.00	29.509 
14:45	32.4	32.4	32.4	93	30.6	2	5	292	0.00	29.503 
14:50	32.4	32.4	32.4	93	30.6	2	5	292	0.00	29.503 
14:55	32.4	32.4	32.4	93	30.6	2	6	315	0.01	29.503 
15:00	32.4	32.4	32.4	93	30.6	2	5	292	0.00	29.502 
15:05	32.5	32.5	32.5	93	30.7	3	6	292	0.00	29.502 
15:10	32.5	32.5	32.5	93	30.7	3	11	292	0.00	29.502 
15:15	32.5	32.5	32.5	93	30.7	2	7	292	0.00	29.499 
15:20	32.5	32.5	32.5	93	30.7	3	6	315	0.00	29.499 
15:25	32.5	32.5	32.5	93	30.7	3	6	338	0.00	29.499 
15:30	32.5	32.5	32.5	93	30.7	2	4	315	0.01	29.502 
15:35	32.5	32.5	32.5	93	30.7	2	6	270	0.00	29.502 
15:40	32.5	32.5	32.5	93	30.7	3	6	270	0.00	29.502 
15:45	32.5	32.5	32.5	93	30.7	2	7	315	0.00	29.503 
15:50	32.5	32.5	32.5	93	30.7	2	6	315	0.00	29.503 
15:55	32.5	32.5	32.5	93	30.7	2	5	270	0.00	29.503 
16:00	32.5	32.5	32.5	93	30.7	2	4	315	0.00	29.504 
16:05	32.5	32.5	32.5	93	30.7	2	5	315	0.00	29.504 
16:10	32.5	32.5	32.5	93	30.7	2	7	292	0.00	29.504 
16:15	32.5	32.5	32.5	93	30.7	2	5	315	0.01	29.504 
16:20	32.5	32.5	32.5	93	30.7	2	5	315	0.00	29.504 
16:25	32.5	32.5	32.5	93	30.7	2	5	292	0.00	29.504 
16:30	32.5	32.5	32.5	93	30.7	2	5	270	0.00	29.504 
16:35	32.5	32.5	32.5	93	30.7	2	4	292	0.00	29.504 
16:40	32.5	32.5	32.5	93	30.7	2	4	292	0.00	29.504 
16:45	32.5	32.5	32.5	93	30.7	2	5	315	0.00	29.505 
16:50	32.5	32.5	32.5	93	30.7	2	6	292	0.00	29.505 
16:55	32.5	32.5	32.5	93	30.7	2	6	315	0.00	29.505 
17:00	32.5	32.5	32.5	93	30.7	2	5	292	0.00	29.505 
17:05	32.5	32.5	32.5	93	30.7	2	3	0	0.00	29.505 
17:10	32.5	32.5	32.5	93	30.7	2	5	315	0.00	29.505 
17:15	32.5	32.5	32.5	93	30.7	2	4	315	0.00	29.506 
17:20	32.5	32.5	32.5	93	30.7	1	4	292	0.00	29.506 
17:25	32.5	32.5	32.5	93	30.7	2	5	315	0.00	29.506 
17:30	32.5	32.5	32.5	93	30.7	2	4	338	0.00	29.509 
17:35	32.5	32.5	32.5	93	30.7	2	4	270	0.00	29.509 
17:40	32.5	32.5	32.5	93	30.7	2	5	270	0.00	29.509 
17:45	32.5	32.5	32.5	93	30.7	2	5	315	0.00	29.510 
17:50	32.5	32.5	32.5	93	30.7	2	4	292	0.00	29.510 
17:55	32.5	32.5	32.5	93	30.7	2	5	315	0.00	29.510 
18:00	32.5	32.5	32.5	93	30.7	2	3	315	0.00	29.513 
18:05	32.5	32.5	32.5	93	30.7	2	5	270	0.01	29.513 
18:10	32.5	32.5	32.5	93	30.7	2	5	270	0.00	29.513 
18:15	32.7	32.7	32.7	93	30.9	2	5	248	0.00	29.513 
18:20	32.7	32.7	32.7	93	30.9	2	4	270	0.00	29.513 
18:25	32.7	32.7	32.7	93	30.9	2	5	315	0.00	29.513 
18:30	32.7	32.7	32.7	93	30.9	2	5	292	0.00	29.511 
18:35	32.7	32.7	32.7	93	30.9	3	6	270	0.00	29.511 
18:40	32.7	32.7	32.7	93	30.9	2	7	292	0.00	29.511 
18:45	32.7	32.7	32.7	93	30.9	2	6	292	0.00	29.513 
18:50	32.8	32.8	32.8	93	31.0	3	5	270	0.00	29.513 
18:55	32.8	32.8	32.8	93	31.0	2	7	270	0.00	29.513 
19:00	32.8	32.8	32.8	93	31.0	0	0	---	0.00	29.518 
19:05	32.8	32.8	32.8	93	31.0	1	6	315	0.00	29.518 
19:10	32.8	32.8	32.8	93	31.0	3	7	315	0.00	29.518 
19:15	32.8	32.8	32.8	93	31.0	2	7	292	0.00	29.520 
19:20	32.8	32.8	32.8	93	31.0	2	6	292	0.00	29.520 
19:25	32.8	32.8	32.8	93	31.0	3	14	270	0.00	29.520 
19:30	32.9	32.9	32.9	92	30.8	3	6	315	0.00	29.521 
19:35	32.9	32.9	32.9	92	30.8	3	13	270	0.00	29.521 
19:40	32.9	32.9	32.9	92	30.8	3	7	270	0.00	29.521 
19:45	32.8	32.8	32.8	92	30.7	2	5	315	0.00	29.522 
19:50	32.8	32.8	32.8	92	30.7	3	9	270	0.00	29.522 
19:55	32.8	32.8	32.8	92	30.7	3	7	270	0.00	29.522 
20:00	32.8	32.8	32.8	92	30.7	2	5	270	0.00	29.524 
20:05	32.8	32.8	32.8	92	30.7	2	5	315	0.00	29.524 
20:10	32.8	32.8	32.8	92	30.7	2	5	292	0.00	29.524 
20:15	32.8	32.8	32.8	92	30.7	3	7	292	0.01	29.529 
20:20	32.8	32.8	32.8	91	30.5	3	6	292	0.00	29.529 
20:25	32.8	32.8	32.8	91	30.5	2	5	292	0.00	29.529 
20:30	32.8	32.8	32.8	91	30.5	3	12	338	0.00	29.526 
20:35	32.7	28.9	32.7	90	30.1	4	9	315	0.00	29.526 
20:40	32.7	32.7	32.7	90	30.1	3	10	270	0.00	29.526 
20:45	32.7	32.7	32.7	90	30.1	3	7	315	0.00	29.527 
20:50	32.7	28.9	32.7	90	30.1	4	11	270	0.00	29.527 
20:55	32.7	32.7	32.7	89	29.8	3	8	315	0.00	29.527 
21:00	32.7	28.9	32.7	89	29.8	4	8	292	0.00	29.523 
21:05	32.7	32.7	32.7	88	29.5	3	9	270	0.00	29.523 
21:10	32.7	32.7	32.7	88	29.5	3	11	315	0.00	29.523 
21:15	32.7	32.7	32.7	88	29.5	3	9	270	0.00	29.523 
21:20	32.7	32.7	32.7	88	29.5	3	8	270	0.00	29.523 
21:25	32.7	32.7	32.7	87	29.3	3	11	315	0.00	29.523 
21:30	32.5	28.7	32.5	87	29.1	4	9	315	0.00	29.523 
21:35	32.5	28.7	32.5	88	29.3	4	14	338	0.00	29.523 
21:40	32.4	28.5	32.4	88	29.3	4	12	270	0.00	29.523 
21:45	32.2	28.3	32.2	88	29.1	4	11	270	0.00	29.525 
21:50	32.1	28.2	32.1	88	29.0	4	11	315	0.00	29.525 
21:55	31.9	31.9	31.9	88	28.8	3	7	315	0.00	29.525 
22:00	31.9	28.0	31.9	88	28.8	4	10	315	0.00	29.524 
22:05	31.8	27.8	31.8	88	28.7	4	10	315	0.00	29.524 
22:10	31.8	31.8	31.8	87	28.4	3	7	315	0.00	29.524 
22:15	31.8	27.8	31.8	87	28.4	4	12	315	0.00	29.524 
22:20	31.8	26.8	31.8	86	28.1	5	13	315	0.00	29.524 
22:25	31.8	27.8	31.8	86	28.1	4	14	315	0.00	29.524 
22:30	31.8	26.8	31.8	85	27.8	5	10	315	0.00	29.519 
22:35	31.6	27.6	31.6	85	27.6	4	13	315	0.00	29.519 
22:40	31.6	27.6	31.6	85	27.6	4	9	338	0.00	29.519 
22:45	31.5	27.5	31.5	85	27.5	4	9	338	0.00	29.514 
22:50	31.3	27.3	31.3	86	27.6	4	10	315	0.00	29.514 
22:55	31.3	27.3	31.3	86	27.6	4	11	315	0.00	29.514 
23:00	31.2	27.2	31.2	86	27.5	4	7	315	0.00	29.512 
23:05	31.2	27.2	31.2	85	27.2	4	10	315	0.00	29.512 
23:10	31.0	26.9	31.0	85	27.0	4	10	315	0.00	29.512 
23:15	30.9	25.8	30.9	84	26.6	5	11	315	0.00	29.513 
23:20	30.9	26.8	30.9	85	26.9	4	12	315	0.00	29.513 
23:25	30.9	26.8	30.9	84	26.6	4	11	315	0.00	29.513 
23:30	30.9	26.8	30.9	84	26.6	4	10	315	0.00	29.519 
23:35	30.7	25.5	30.7	84	26.4	5	11	315	0.00	29.519 
23:40	30.7	25.5	30.7	84	26.4	5	12	315	0.00	29.519 
23:45	30.7	26.6	30.7	84	26.4	4	10	315	0.00	29.518 
23:50	30.6	26.5	30.6	84	26.4	4	10	315	0.00	29.518 
23:55	30.6	26.5	30.6	84	26.4	4	12	315	0.00	29.518 

CoCoRaHS
IN-AL-39
A2 Web Hosting
Creative Commons License
GoDaddy
Look for:

loaded 2017-10-17 18:08:35 • last modified 2010-11-18 10:43:29
Privacy PolicyDisclaimer
• wx.awcolley.com is powered by PmWiki v.2002016 •
• all content (unless otherwise noted) © 2017 A W Colley